Time;durP1;ratioP1;P1;durP2;ratioP2;P2;SDS_P1;SDS_P2;PMS_P1;PMS_P2;Temp;Humidity;BMP_temperature;BMP_pressure;BME280_temperature;BME280_humidity;BME280_pressure;Samples;Min_cycle;Max_cycle;Signal;HPM_P1;HPM_P2
2022/01/27 00:00:49;;;;;;;49.77;27.90;;;-0.20;99.90;;;;;;5094916;28;20448;-76
2022/01/27 00:03:23;;;;;;;47.57;28.33;;;-0.20;99.90;;;;;;5094745;28;20498;-77
2022/01/27 00:05:54;;;;;;;51.47;28.40;;;-0.20;99.90;;;;;;5094911;28;20460;-78
2022/01/27 00:08:29;;;;;;;44.77;26.43;;;-0.20;99.90;;;;;;5085487;28;20449;-77
2022/01/27 00:11:00;;;;;;;47.93;28.20;;;-0.20;99.90;;;;;;5094689;28;20477;-77
2022/01/27 00:13:33;;;;;;;50.77;29.73;;;-0.30;99.90;;;;;;5095205;28;20452;-77
2022/01/27 00:16:16;;;;;;;48.87;27.63;;;-0.30;99.90;;;;;;5094541;28;20459;-78
2022/01/27 00:18:46;;;;;;;53.10;27.57;;;-0.30;99.90;;;;;;5094512;28;20537;-78
2022/01/27 00:21:15;;;;;;;48.93;28.03;;;-0.30;99.90;;;;;;5094260;28;20434;-76
2022/01/27 00:23:45;;;;;;;48.90;28.50;;;-0.40;99.90;;;;;;5095263;28;20535;-76
2022/01/27 00:26:15;;;;;;;48.97;28.87;;;-0.40;99.90;;;;;;5087141;28;20993;-76
2022/01/27 00:28:47;;;;;;;47.63;28.47;;;-0.30;99.90;;;;;;5082977;28;20465;-79
2022/01/27 00:31:18;;;;;;;47.60;27.07;;;-0.40;99.90;;;;;;5096824;28;20824;-79
2022/01/27 00:33:47;;;;;;;48.33;26.87;;;-0.30;99.90;;;;;;5094754;28;20453;-79
2022/01/27 00:36:15;;;;;;;51.20;28.77;;;-0.40;99.90;;;;;;5094985;28;20539;-80
2022/01/27 00:38:45;;;;;;;46.73;28.30;;;-0.30;99.90;;;;;;5094535;28;20870;-78
2022/01/27 00:41:19;;;;;;;47.23;27.73;;;-0.40;99.90;;;;;;5084709;28;20454;-77
2022/01/27 00:43:49;;;;;;;46.93;27.57;;;-0.40;99.90;;;;;;5075054;28;20454;-78
2022/01/27 00:46:18;;;;;;;49.67;29.37;;;-0.40;99.90;;;;;;5074158;28;20496;-78
2022/01/27 00:48:48;;;;;;;46.77;26.77;;;-0.40;99.90;;;;;;5088111;28;20959;-78
2022/01/27 00:51:21;;;;;;;44.00;26.57;;;-0.40;99.90;;;;;;5097259;28;20576;-78
2022/01/27 00:54:01;;;;;;;47.33;27.40;;;-0.10;99.90;;;;;;5099107;28;20437;-79
2022/01/27 00:56:38;;;;;;;48.97;28.13;;;-0.30;99.90;;;;;;5097363;28;20979;-82
2022/01/27 00:59:22;;;;;;;50.83;28.07;;;-0.40;99.90;;;;;;5097583;28;20427;-78
2022/01/27 01:01:59;;;;;;;46.13;27.60;;;-0.40;99.90;;;;;;5094419;28;20482;-79
2022/01/27 01:04:32;;;;;;;46.87;28.00;;;-0.30;99.90;;;;;;5094860;28;20878;-78
2022/01/27 01:07:00;;;;;;;47.53;28.10;;;-0.40;99.90;;;;;;5094323;28;20460;-78
2022/01/27 01:13:45;;;;;;;45.93;27.00;;;-0.30;99.90;;;;;;5094132;28;20857;-77
2022/01/27 01:15:32;;;;;;;46.77;26.63;;;-0.20;99.90;;;;;;5094212;28;20464;-78
2022/01/27 01:18:16;;;;;;;48.07;27.47;;;-0.30;99.90;;;;;;5094167;28;20487;-79
2022/01/27 01:21:00;;;;;;;42.77;25.77;;;-0.30;99.90;;;;;;5094233;28;20477;-78
2022/01/27 01:31:53;;;;;;;44.43;27.00;;;-0.40;99.90;;;;;;5093483;28;20461;-76
2022/01/27 01:34:24;;;;;;;44.03;26.27;;;-0.30;99.90;;;;;;5094123;28;20429;-77
2022/01/27 01:36:56;;;;;;;42.43;26.70;;;-0.40;99.90;;;;;;5093043;28;20491;-78
2022/01/27 01:39:27;;;;;;;41.87;25.93;;;-0.40;99.90;;;;;;5094276;28;20444;-77
2022/01/27 01:41:57;;;;;;;40.60;25.17;;;-0.40;99.90;;;;;;5093699;28;20487;-76
2022/01/27 01:44:26;;;;;;;41.13;26.83;;;-0.20;99.90;;;;;;5093615;28;20429;-75
2022/01/27 01:46:55;;;;;;;39.83;25.43;;;-0.30;99.90;;;;;;5099338;28;20476;-75
2022/01/27 01:49:26;;;;;;;40.27;25.80;;;-0.30;99.90;;;;;;5095037;28;20590;-76
2022/01/27 01:51:54;;;;;;;42.70;26.57;;;-0.30;99.90;;;;;;5093230;28;20499;-76
2022/01/27 01:54:23;;;;;;;42.37;26.83;;;-0.30;99.90;;;;;;5093698;28;20486;-76
2022/01/27 01:56:51;;;;;;;44.07;27.17;;;-0.30;99.90;;;;;;5093355;28;20453;-76
2022/01/27 01:59:22;;;;;;;44.00;27.17;;;-0.40;99.90;;;;;;5093601;28;20528;-75
2022/01/27 02:01:50;;;;;;;44.67;26.83;;;-0.40;99.90;;;;;;5073476;28;20890;-76
2022/01/27 02:04:19;;;;;;;44.97;26.83;;;-0.30;99.90;;;;;;5072800;28;21011;-75
2022/01/27 02:06:51;;;;;;;46.27;27.90;;;-0.30;99.90;;;;;;5073148;28;20794;-75
2022/01/27 02:09:28;;;;;;;43.63;26.33;;;-0.30;99.90;;;;;;5073500;28;20535;-76
2022/01/27 02:20:19;;;;;;;46.63;27.83;;;-0.40;99.90;;;;;;5092938;28;20440;-76
2022/01/27 02:22:47;;;;;;;44.23;26.97;;;-0.40;99.90;;;;;;5092999;28;20447;-76
2022/01/27 02:25:17;;;;;;;43.63;26.37;;;-0.30;99.90;;;;;;5093385;28;20489;-74
2022/01/27 02:27:46;;;;;;;47.93;28.47;;;-0.40;99.90;;;;;;5093799;28;20475;-74
2022/01/27 02:30:15;;;;;;;44.10;26.57;;;-0.40;99.90;;;;;;5093171;28;20496;-75
2022/01/27 02:32:44;;;;;;;46.40;27.63;;;-0.50;99.90;;;;;;5092994;28;20484;-74
2022/01/27 02:35:12;;;;;;;45.73;27.67;;;-0.50;99.90;;;;;;5093650;28;20441;-76
2022/01/27 02:37:42;;;;;;;45.43;27.63;;;-0.40;99.90;;;;;;5093563;28;20472;-75
2022/01/27 02:40:13;;;;;;;48.47;27.70;;;-0.40;99.90;;;;;;5093743;28;20445;-76
2022/01/27 02:42:41;;;;;;;46.63;27.33;;;-0.40;99.90;;;;;;5103020;28;20459;-78
2022/01/27 02:45:13;;;;;;;47.63;28.50;;;-0.50;99.90;;;;;;5112860;28;20472;-74
2022/01/27 02:47:42;;;;;;;48.73;29.07;;;-0.40;99.90;;;;;;5113014;28;20490;-76
2022/01/27 02:50:11;;;;;;;48.67;28.07;;;-0.40;99.90;;;;;;5114107;28;20480;-77
2022/01/27 02:52:39;;;;;;;47.83;28.43;;;-0.40;99.90;;;;;;5114206;28;20493;-75
2022/01/27 02:55:10;;;;;;;46.70;27.97;;;-0.40;99.90;;;;;;5102840;28;20483;-74
2022/01/27 02:57:39;;;;;;;47.33;28.53;;;-0.40;99.90;;;;;;5097635;28;20471;-74
2022/01/27 03:00:09;;;;;;;48.23;29.50;;;-0.40;99.90;;;;;;5100775;28;20488;-78
2022/01/27 03:02:37;;;;;;;48.77;28.33;;;-0.40;99.90;;;;;;5107394;28;20973;-76
2022/01/27 03:05:06;;;;;;;42.87;26.80;;;-0.40;99.90;;;;;;5087830;28;20467;-76
2022/01/27 03:07:34;;;;;;;51.07;29.37;;;-0.40;99.90;;;;;;5080211;28;20504;-74
2022/01/27 03:10:02;;;;;;;48.70;29.53;;;-0.50;99.90;;;;;;5075322;28;20877;-75
2022/01/27 03:12:40;;;;;;;47.03;28.87;;;-0.40;99.90;;;;;;5085608;28;20480;-75
2022/01/27 03:15:11;;;;;;;47.27;29.43;;;-0.30;99.90;;;;;;5096171;28;20453;-74
2022/01/27 03:17:39;;;;;;;48.00;28.37;;;-0.40;99.90;;;;;;5096114;28;20487;-76
2022/01/27 03:20:09;;;;;;;49.47;31.00;;;-0.40;99.90;;;;;;5096243;28;20460;-73
2022/01/27 03:22:37;;;;;;;50.33;29.73;;;-0.50;99.90;;;;;;5095376;28;20482;-74
2022/01/27 03:25:07;;;;;;;47.73;29.07;;;-0.40;99.90;;;;;;5095790;28;20508;-74
2022/01/27 03:27:44;;;;;;;50.77;29.93;;;-0.50;99.90;;;;;;5095232;28;20507;-74
2022/01/27 03:30:12;;;;;;;48.47;29.07;;;-0.50;99.90;;;;;;5095577;28;20464;-73
2022/01/27 03:32:41;;;;;;;48.47;29.63;;;-0.50;99.90;;;;;;5095418;28;20487;-75
2022/01/27 03:35:09;;;;;;;47.17;29.33;;;-0.50;99.90;;;;;;5095740;28;20433;-73
2022/01/27 03:37:37;;;;;;;45.53;28.23;;;-0.50;99.90;;;;;;5095707;28;20787;-77
2022/01/27 03:40:07;;;;;;;46.20;28.87;;;-0.40;99.90;;;;;;5095615;28;20480;-76
2022/01/27 03:42:44;;;;;;;45.80;28.73;;;-0.40;99.90;;;;;;5095208;28;20502;-77
2022/01/27 03:45:14;;;;;;;49.73;30.33;;;-0.40;99.90;;;;;;5095070;28;20447;-75
2022/01/27 03:47:43;;;;;;;46.13;29.67;;;-0.40;99.90;;;;;;5095417;28;20852;-74
2022/01/27 03:50:11;;;;;;;45.97;27.70;;;-0.40;99.90;;;;;;5095161;28;20486;-75
2022/01/27 03:52:39;;;;;;;50.10;29.27;;;-0.40;99.90;;;;;;5095226;28;20475;-77
2022/01/27 03:55:08;;;;;;;47.90;30.60;;;-0.40;99.90;;;;;;5094456;28;20445;-75
2022/01/27 03:57:38;;;;;;;51.23;31.37;;;-0.40;99.90;;;;;;5094987;28;20514;-73
2022/01/27 04:00:09;;;;;;;47.67;30.30;;;-0.50;99.90;;;;;;5095056;28;20538;-73
2022/01/27 04:02:41;;;;;;;49.47;30.80;;;-0.50;99.90;;;;;;5095111;28;20430;-79
2022/01/27 04:05:12;;;;;;;47.00;30.03;;;-0.50;99.90;;;;;;5095056;28;20452;-73
2022/01/27 04:07:42;;;;;;;50.17;31.10;;;-0.50;99.90;;;;;;5094626;28;20445;-76
2022/01/27 04:10:11;;;;;;;49.63;29.57;;;-0.50;99.90;;;;;;5092026;28;20460;-75
2022/01/27 04:12:40;;;;;;;48.57;30.40;;;-0.50;99.90;;;;;;5088147;28;20528;-74
2022/01/27 04:15:09;;;;;;;53.03;32.53;;;-0.60;99.90;;;;;;5094814;28;20597;-80
2022/01/27 04:17:37;;;;;;;55.17;34.30;;;-0.60;99.90;;;;;;5095396;28;20962;-80
2022/01/27 04:20:07;;;;;;;53.47;33.57;;;-0.50;99.90;;;;;;5094756;28;20468;-75
2022/01/27 04:22:36;;;;;;;52.93;33.00;;;-0.50;99.90;;;;;;5095243;28;20562;-76
2022/01/27 04:25:05;;;;;;;53.10;33.80;;;-0.50;99.90;;;;;;5093463;28;20544;-76
2022/01/27 04:27:36;;;;;;;52.57;33.40;;;-0.60;99.90;;;;;;5095747;28;20504;-79
2022/01/27 04:30:15;;;;;;;54.63;33.43;;;-0.60;99.90;;;;;;5078878;28;20516;-79
2022/01/27 04:32:49;;;;;;;55.93;33.07;;;-0.60;99.90;;;;;;5094636;28;20435;-73
2022/01/27 04:35:19;;;;;;;53.50;32.77;;;-0.70;99.90;;;;;;5094959;28;20468;-74
2022/01/27 04:38:00;;;;;;;55.00;33.50;;;-0.60;99.90;;;;;;5094930;28;20457;-79
2022/01/27 04:40:34;;;;;;;58.67;34.80;;;-0.70;99.90;;;;;;5093520;28;20472;-79
2022/01/27 04:43:09;;;;;;;57.60;34.40;;;-0.70;99.90;;;;;;5094218;28;20508;-78
2022/01/27 04:45:45;;;;;;;56.33;35.00;;;-0.70;99.90;;;;;;5094213;28;20522;-77
2022/01/27 04:48:17;;;;;;;54.83;34.23;;;-0.70;99.90;;;;;;5093971;28;21028;-81
2022/01/27 04:50:45;;;;;;;60.43;35.37;;;-0.80;99.90;;;;;;5093925;28;20451;-79
2022/01/27 04:53:20;;;;;;;59.63;36.30;;;-0.80;99.90;;;;;;5092786;28;20571;-79
2022/01/27 04:56:04;;;;;;;62.27;35.90;;;-0.80;99.90;;;;;;5094203;28;20471;-79
2022/01/27 04:58:34;;;;;;;62.40;35.53;;;-0.90;99.90;;;;;;5093363;28;20445;-79
2022/01/27 05:01:04;;;;;;;63.60;36.63;;;-1.00;99.90;;;;;;5093785;28;20492;-79
2022/01/27 05:03:39;;;;;;;62.40;37.40;;;-1.00;99.90;;;;;;5093465;28;20449;-79
2022/01/27 05:06:08;;;;;;;64.00;38.30;;;-1.00;99.90;;;;;;5092841;28;20535;-81
2022/01/27 05:08:35;;;;;;;65.03;38.43;;;-1.00;99.90;;;;;;5097301;28;20538;-75
2022/01/27 05:11:09;;;;;;;67.57;37.67;;;-1.10;99.90;;;;;;5106979;28;20449;-74
2022/01/27 05:13:42;;;;;;;64.37;37.37;;;-1.00;99.90;;;;;;5099528;28;20497;-76
2022/01/27 05:16:11;;;;;;;65.30;37.33;;;-1.10;99.90;;;;;;5095592;28;20430;-78
2022/01/27 05:18:39;;;;;;;61.70;37.50;;;-1.10;99.90;;;;;;5076743;28;20533;-75
2022/01/27 05:21:09;;;;;;;61.43;37.90;;;-1.10;99.90;;;;;;5093709;28;20494;-77
2022/01/27 05:23:37;;;;;;;64.00;36.93;;;-1.10;99.90;;;;;;5093005;28;20449;-80
2022/01/27 05:26:05;;;;;;;65.40;38.70;;;-1.10;99.90;;;;;;5093492;28;20452;-77
2022/01/27 05:28:34;;;;;;;70.53;39.60;;;-1.20;99.90;;;;;;5099449;28;20481;-79
2022/01/27 05:31:02;;;;;;;69.90;42.03;;;-1.20;99.90;;;;;;5093843;28;20498;-78
2022/01/27 05:33:32;;;;;;;72.07;39.53;;;-1.20;99.90;;;;;;5093699;28;20486;-77
2022/01/27 05:36:00;;;;;;;71.03;40.00;;;-1.30;99.90;;;;;;5093052;28;20445;-78
2022/01/27 05:38:29;;;;;;;72.13;40.47;;;-1.30;99.90;;;;;;5092747;28;20478;-75
2022/01/27 05:40:58;;;;;;;69.70;39.43;;;-1.30;99.90;;;;;;5093389;28;20508;-80
2022/01/27 05:43:26;;;;;;;73.70;40.03;;;-1.40;99.90;;;;;;5093097;28;20539;-74
2022/01/27 05:45:54;;;;;;;68.60;40.97;;;-1.30;99.90;;;;;;5092484;28;20443;-76
2022/01/27 05:48:22;;;;;;;70.60;40.80;;;-1.30;99.90;;;;;;5092454;28;20490;-77
2022/01/27 05:50:52;;;;;;;79.85;49.55;;;-1.40;99.90;;;;;;5094376;28;20492;-73
2022/01/27 05:53:20;;;;;;;75.17;45.40;;;-1.40;99.90;;;;;;5097148;28;20249;-74
2022/01/27 05:55:48;;;;;;;68.67;41.27;;;-1.40;99.90;;;;;;5096087;28;20513;-74
2022/01/27 05:58:19;;;;;;;72.03;41.37;;;-1.50;99.90;;;;;;5099743;28;20452;-76
2022/01/27 06:00:47;;;;;;;77.90;42.47;;;-1.50;99.90;;;;;;5097606;28;20421;-73
2022/01/27 06:03:16;;;;;;;75.77;43.00;;;-1.50;99.90;;;;;;5103470;28;20464;-74
2022/01/27 06:05:44;;;;;;;67.57;40.87;;;-1.40;99.90;;;;;;5105633;28;20444;-75
2022/01/27 06:08:13;;;;;;;76.20;43.00;;;-1.40;99.90;;;;;;5104575;28;20451;-73
2022/01/27 06:10:42;;;;;;;75.80;43.43;;;-1.50;99.90;;;;;;5097026;28;20447;-75
2022/01/27 06:13:10;;;;;;;81.27;44.00;;;-1.50;99.90;;;;;;5096146;28;20939;-73
2022/01/27 06:15:38;;;;;;;77.67;41.50;;;-1.60;99.90;;;;;;5095253;28;20563;-74
2022/01/27 06:18:06;;;;;;;74.90;42.20;;;-1.60;99.90;;;;;;5094141;28;20464;-73
2022/01/27 06:20:36;;;;;;;75.70;42.67;;;-1.60;99.90;;;;;;5091864;28;20445;-74
2022/01/27 06:23:06;;;;;;;75.43;44.43;;;-1.60;99.90;;;;;;5090550;28;20472;-73
2022/01/27 06:25:36;;;;;;;80.53;46.40;;;-1.60;99.90;;;;;;5090953;28;20453;-73
2022/01/27 06:28:05;;;;;;;82.53;48.13;;;-1.60;99.90;;;;;;5085714;28;20850;-76
2022/01/27 06:30:34;;;;;;;82.10;45.60;;;-1.70;99.90;;;;;;5101561;28;20509;-73
2022/01/27 06:33:04;;;;;;;78.73;45.63;;;-1.70;99.90;;;;;;5097470;28;20451;-74
2022/01/27 06:35:33;;;;;;;83.33;45.30;;;-1.70;99.90;;;;;;5093643;28;20825;-74
2022/01/27 06:38:01;;;;;;;80.47;44.20;;;-1.80;99.90;;;;;;5091454;28;20523;-75
2022/01/27 06:40:30;;;;;;;76.27;43.53;;;-1.80;99.90;;;;;;5089755;28;20520;-73
2022/01/27 06:42:59;;;;;;;81.83;45.83;;;-1.80;99.90;;;;;;5095400;28;20511;-74
2022/01/27 06:45:28;;;;;;;72.43;42.47;;;-1.90;99.90;;;;;;5090730;28;20447;-77
2022/01/27 06:47:56;;;;;;;80.80;43.30;;;-1.90;99.90;;;;;;5093357;28;20481;-81
2022/01/27 06:50:24;;;;;;;74.03;43.10;;;-1.90;99.90;;;;;;5058111;28;20517;-79
2022/01/27 06:52:52;;;;;;;77.03;43.60;;;-1.90;99.90;;;;;;5054108;28;20465;-77
2022/01/27 06:55:21;;;;;;;77.87;42.93;;;-1.90;99.90;;;;;;5045615;28;20483;-78
2022/01/27 06:57:50;;;;;;;76.30;43.40;;;-1.90;99.90;;;;;;5046160;28;20451;-76
2022/01/27 07:00:20;;;;;;;78.60;44.53;;;-1.90;99.90;;;;;;5056019;28;20452;-75
2022/01/27 07:02:48;;;;;;;76.87;45.10;;;-1.90;99.90;;;;;;5060520;28;20444;-73
2022/01/27 07:05:17;;;;;;;84.47;45.90;;;-1.90;99.90;;;;;;5048831;28;20489;-75
2022/01/27 07:07:45;;;;;;;80.47;45.30;;;-1.90;99.90;;;;;;5049980;28;20450;-73
2022/01/27 07:10:13;;;;;;;78.17;43.00;;;-1.90;99.90;;;;;;5061846;28;20457;-74
2022/01/27 07:12:42;;;;;;;72.07;42.27;;;-1.80;99.90;;;;;;5061920;28;20523;-74
2022/01/27 07:15:13;;;;;;;70.97;42.10;;;-1.80;99.90;;;;;;5065951;28;20490;-76
2022/01/27 07:17:47;;;;;;;69.40;40.77;;;-1.70;99.90;;;;;;5074253;28;20458;-76
2022/01/27 07:20:15;;;;;;;69.83;40.37;;;-1.70;99.90;;;;;;5072380;28;20490;-75
2022/01/27 07:22:45;;;;;;;70.13;40.33;;;-1.70;99.90;;;;;;5071086;28;20443;-75
2022/01/27 07:25:13;;;;;;;69.03;40.43;;;-1.70;99.90;;;;;;5065999;28;20489;-75
2022/01/27 07:27:41;;;;;;;62.93;39.07;;;-1.70;99.90;;;;;;5069191;28;20501;-76
2022/01/27 07:30:10;;;;;;;60.70;39.27;;;-1.60;99.90;;;;;;5078471;28;20451;-79
2022/01/27 07:32:39;;;;;;;62.27;38.33;;;-1.60;99.90;;;;;;5064259;28;20812;-75
2022/01/27 07:35:09;;;;;;;58.27;37.50;;;-1.50;99.90;;;;;;5075186;28;20482;-76
2022/01/27 07:37:40;;;;;;;56.97;37.77;;;-1.50;99.90;;;;;;5079600;28;20447;-75
2022/01/27 07:40:10;;;;;;;57.40;37.67;;;-1.50;99.90;;;;;;5053715;28;20459;-80
2022/01/27 07:42:41;;;;;;;59.03;38.10;;;-1.40;99.90;;;;;;5060953;28;21173;-76
2022/01/27 07:45:10;;;;;;;56.43;37.80;;;-1.50;99.90;;;;;;5053180;28;20509;-75
2022/01/27 07:47:38;;;;;;;57.30;37.00;;;-1.30;99.90;;;;;;5048547;28;20637;-75
2022/01/27 07:50:09;;;;;;;53.80;36.00;;;-1.20;99.90;;;;;;5058288;28;20552;-74
2022/01/27 07:52:38;;;;;;;51.13;35.80;;;-1.10;99.90;;;;;;5058579;28;20460;-77
2022/01/27 07:55:09;;;;;;;49.83;34.37;;;-0.90;99.90;;;;;;5056082;28;20474;-74
2022/01/27 07:57:39;;;;;;;48.77;34.30;;;-0.70;99.90;;;;;;5065310;28;20523;-74
2022/01/27 08:00:10;;;;;;;46.97;33.30;;;-0.70;99.90;;;;;;5057301;28;20452;-77
2022/01/27 08:02:39;;;;;;;43.80;31.33;;;-0.50;99.90;;;;;;5036959;28;20527;-73
2022/01/27 08:05:09;;;;;;;43.77;32.80;;;-0.40;99.90;;;;;;5036165;28;20476;-73
2022/01/27 08:07:37;;;;;;;44.27;32.47;;;-0.10;99.90;;;;;;5037670;28;20480;-73
2022/01/27 08:10:07;;;;;;;44.73;32.50;;;0.20;99.90;;;;;;5055224;28;20513;-73
2022/01/27 08:12:40;;;;;;;42.57;30.80;;;0.40;99.90;;;;;;5053847;28;20813;-74
2022/01/27 08:15:11;;;;;;;44.60;31.70;;;0.70;99.90;;;;;;5047393;28;20274;-77
2022/01/27 08:17:40;;;;;;;38.87;29.70;;;1.10;99.90;;;;;;5070732;28;20459;-76
2022/01/27 08:20:11;;;;;;;39.88;32.75;;;1.40;99.90;;;;;;5066392;28;20431;-73
2022/01/27 08:22:39;;;;;;;37.43;28.97;;;1.60;99.90;;;;;;5054776;28;20211;-74
2022/01/27 08:25:09;;;;;;;37.33;27.87;;;1.70;99.90;;;;;;5059450;28;20204;-75
2022/01/27 08:27:40;;;;;;;37.17;28.80;;;1.80;99.90;;;;;;5057999;28;20201;-75
2022/01/27 08:30:09;;;;;;;34.43;27.90;;;2.20;99.90;;;;;;5050642;28;20759;-77
2022/01/27 08:32:49;;;;;;;34.97;26.87;;;2.30;99.90;;;;;;5041114;28;20750;-78
2022/01/27 08:35:20;;;;;;;32.83;25.57;;;2.20;99.90;;;;;;5048285;28;20303;-76
2022/01/27 08:37:50;;;;;;;33.63;26.30;;;2.60;99.90;;;;;;5039382;28;20284;-76
2022/01/27 08:40:20;;;;;;;32.53;25.47;;;2.70;99.90;;;;;;5035174;28;20255;-76
2022/01/27 08:43:09;;;;;;;31.87;25.67;;;2.90;99.90;;;;;;5042063;28;20212;-74
2022/01/27 08:45:39;;;;;;;33.07;26.17;;;3.00;99.90;;;;;;5054324;28;20211;-75
2022/01/27 08:48:10;;;;;;;29.83;24.70;;;3.30;99.90;;;;;;5052433;28;20603;-75
2022/01/27 08:50:40;;;;;;;30.13;24.97;;;3.90;99.90;;;;;;5053855;28;20615;-74
2022/01/27 08:53:11;;;;;;;29.40;24.33;;;4.40;99.90;;;;;;5052031;28;20294;-74
2022/01/27 08:55:39;;;;;;;28.07;23.80;;;5.60;99.90;;;;;;5045781;28;20219;-75
2022/01/27 08:58:07;;;;;;;27.53;23.57;;;6.40;99.90;;;;;;5033729;28;20235;-76
2022/01/27 09:00:38;;;;;;;25.37;22.03;;;7.30;99.90;;;;;;5033265;28;20740;-76
2022/01/27 09:03:07;;;;;;;23.70;21.13;;;8.10;99.90;;;;;;5035614;28;20589;-75
2022/01/27 09:05:35;;;;;;;22.33;20.03;;;8.60;99.90;;;;;;5048998;28;20192;-76
2022/01/27 09:08:05;;;;;;;23.00;20.60;;;8.60;99.90;;;;;;5052751;28;20234;-74
2022/01/27 09:10:34;;;;;;;23.10;20.07;;;9.30;98.60;;;;;;5035780;28;20233;-79
2022/01/27 09:13:04;;;;;;;20.90;18.70;;;9.30;98.30;;;;;;5040470;28;20243;-75
2022/01/27 09:15:32;;;;;;;22.57;19.73;;;9.00;98.20;;;;;;5033968;28;20263;-74
2022/01/27 09:18:01;;;;;;;20.27;18.23;;;9.10;97.60;;;;;;5032824;28;20220;-78
2022/01/27 09:20:30;;;;;;;20.53;18.40;;;8.70;97.60;;;;;;5039644;28;20217;-74
2022/01/27 09:23:00;;;;;;;20.57;18.47;;;8.90;97.70;;;;;;5041614;28;20197;-74
2022/01/27 09:25:41;;;;;;;20.30;18.20;;;8.10;98.20;;;;;;5049675;28;20208;-74
2022/01/27 09:28:09;;;;;;;20.07;17.97;;;7.70;98.50;;;;;;5053466;28;20196;-74
2022/01/27 09:30:38;;;;;;;20.30;18.20;;;7.80;99.30;;;;;;5045366;28;20209;-75
2022/01/27 09:33:06;;;;;;;19.17;17.10;;;7.90;99.00;;;;;;5042755;28;20214;-77
2022/01/27 09:35:36;;;;;;;18.80;16.80;;;8.10;99.30;;;;;;5039296;28;20643;-80
2022/01/27 09:38:04;;;;;;;19.07;17.07;;;9.00;97.00;;;;;;5051770;28;20219;-76
2022/01/27 09:40:34;;;;;;;19.30;17.30;;;9.60;96.50;;;;;;5047708;28;20213;-77
2022/01/27 09:43:04;;;;;;;18.83;15.93;;;10.20;94.70;;;;;;5035459;28;20205;-77
2022/01/27 09:45:38;;;;;;;15.33;13.83;;;10.80;92.70;;;;;;5044649;28;20204;-78
2022/01/27 09:48:12;;;;;;;14.63;13.00;;;11.20;91.10;;;;;;5047164;28;20251;-76
2022/01/27 09:51:00;;;;;;;13.33;12.00;;;11.20;90.60;;;;;;5046925;28;20320;-77
2022/01/27 09:53:30;;;;;;;13.77;11.73;;;11.40;90.40;;;;;;5053465;28;20192;-76
2022/01/27 09:56:00;;;;;;;12.37;11.17;;;11.80;89.30;;;;;;5049251;28;20693;-77
2022/01/27 09:58:29;;;;;;;12.67;11.40;;;11.30;87.70;;;;;;5051377;28;20200;-76
2022/01/27 10:00:57;;;;;;;11.93;10.47;;;11.50;90.30;;;;;;5039288;28;20209;-76
2022/01/27 10:03:28;;;;;;;10.50;9.50;;;12.10;85.80;;;;;;5034694;28;20208;-78
2022/01/27 10:06:11;;;;;;;9.70;8.07;;;12.30;83.50;;;;;;5049870;28;20188;-76
2022/01/27 10:08:41;;;;;;;9.00;8.10;;;11.70;83.00;;;;;;5057025;28;20204;-77
2022/01/27 10:11:16;;;;;;;8.30;7.50;;;12.20;83.00;;;;;;5044152;28;20212;-77
2022/01/27 10:13:47;;;;;;;8.90;7.93;;;12.40;81.00;;;;;;5040446;28;20204;-79
2022/01/27 10:16:30;;;;;;;11.37;8.43;;;12.30;82.30;;;;;;5038878;28;20283;-78
2022/01/27 10:19:05;;;;;;;11.17;8.27;;;12.30;82.80;;;;;;5048459;28;20208;-76
2022/01/27 10:21:37;;;;;;;10.70;7.90;;;12.50;82.20;;;;;;5052412;28;20313;-78
2022/01/27 10:24:19;;;;;;;11.33;8.97;;;11.90;82.30;;;;;;5057249;28;20241;-80
2022/01/27 10:26:54;;;;;;;9.23;8.17;;;11.90;82.50;;;;;;5055491;28;20192;-78
2022/01/27 10:29:36;;;;;;;10.97;9.37;;;12.30;80.30;;;;;;5057338;28;20238;-78
2022/01/27 10:32:09;;;;;;;11.23;9.07;;;12.70;81.30;;;;;;5057772;28;20651;-81
2022/01/27 10:35:05;;;;;;;10.60;9.50;;;13.30;80.70;;;;;;5049187;28;20576;-79
2022/01/27 10:37:55;;;;;;;10.90;9.67;;;12.40;81.40;;;;;;5004929;28;20761;-80
2022/01/27 10:40:26;;;;;;;12.37;11.07;;;12.60;81.90;;;;;;5040939;28;20205;-76
2022/01/27 10:43:11;;;;;;;10.87;9.40;;;12.70;82.50;;;;;;5054626;28;20705;-79
2022/01/27 10:45:57;;;;;;;11.00;9.80;;;13.00;81.30;;;;;;5057021;28;20242;-76
2022/01/27 10:48:29;;;;;;;11.63;9.17;;;13.00;78.20;;;;;;5069000;28;20192;-82
2022/01/27 10:51:06;;;;;;;11.33;9.47;;;12.20;80.90;;;;;;5067728;28;20274;-77
2022/01/27 10:53:47;;;;;;;11.37;9.70;;;12.00;79.40;;;;;;5061833;28;20230;-78
2022/01/27 10:56:20;;;;;;;10.03;9.03;;;11.50;81.80;;;;;;5055141;28;20622;-78
2022/01/27 10:58:50;;;;;;;13.27;8.97;;;11.50;81.60;;;;;;5055835;28;20217;-78
2022/01/27 11:01:33;;;;;;;11.63;9.07;;;12.30;82.30;;;;;;5049062;28;20255;-77
2022/01/27 11:04:03;;;;;;;10.80;9.70;;;12.20;80.70;;;;;;5055907;28;20193;-79
2022/01/27 11:06:34;;;;;;;12.13;10.87;;;12.20;82.10;;;;;;5041386;28;20204;-80
2022/01/27 11:09:08;;;;;;;14.17;11.87;;;12.60;80.70;;;;;;5052086;28;20299;-78
2022/01/27 11:11:40;;;;;;;13.20;11.70;;;12.30;80.30;;;;;;5053608;28;20231;-77
2022/01/27 11:14:09;;;;;;;13.63;11.40;;;11.90;80.50;;;;;;5055080;28;20201;-78
2022/01/27 11:16:40;;;;;;;12.97;11.67;;;11.80;81.00;;;;;;5055761;28;20263;-77
2022/01/27 11:19:35;;;;;;;12.37;11.13;;;11.60;81.60;;;;;;5055529;28;20283;-77
2022/01/27 11:22:09;;;;;;;12.40;11.10;;;11.70;82.10;;;;;;5043879;28;20207;-77
2022/01/27 11:25:06;;;;;;;12.37;11.13;;;11.00;84.70;;;;;;5055822;28;20230;-76
2022/01/27 11:27:35;;;;;;;13.13;11.43;;;10.90;83.20;;;;;;5064126;28;20607;-78
2022/01/27 11:30:08;;;;;;;12.17;10.67;;;10.90;84.50;;;;;;5054848;28;20211;-77
2022/01/27 11:32:41;;;;;;;12.07;10.77;;;11.00;84.50;;;;;;5046456;28;20291;-73
2022/01/27 11:35:18;;;;;;;12.20;10.70;;;11.20;81.50;;;;;;5036735;28;20231;-76
2022/01/27 11:37:51;;;;;;;12.87;10.23;;;10.60;81.70;;;;;;5035351;28;20205;-75
2022/01/27 11:40:21;;;;;;;12.90;10.07;;;10.30;82.80;;;;;;5036003;28;20296;-76
2022/01/27 11:43:11;;;;;;;12.10;10.00;;;10.30;83.30;;;;;;5037358;28;20333;-75
2022/01/27 11:45:43;;;;;;;13.67;9.83;;;10.00;84.20;;;;;;5046421;28;20205;-77
2022/01/27 11:48:14;;;;;;;12.47;10.07;;;10.40;85.00;;;;;;5067970;28;20204;-76
2022/01/27 11:50:52;;;;;;;11.87;10.00;;;10.70;83.70;;;;;;5038712;28;20300;-78
2022/01/27 11:53:32;;;;;;;10.10;9.07;;;10.60;84.00;;;;;;5058790;28;20249;-79
2022/01/27 11:56:02;;;;;;;11.77;10.47;;;10.50;83.90;;;;;;5066472;28;20189;-79
2022/01/27 11:58:31;;;;;;;12.93;11.50;;;10.50;84.60;;;;;;5055107;28;20598;-79
2022/01/27 12:01:14;;;;;;;12.23;10.97;;;10.30;85.70;;;;;;5055099;28;20702;-79
2022/01/27 12:04:15;;;;;;;12.57;10.90;;;9.50;89.50;;;;;;5057860;28;20234;-78
2022/01/27 12:07:02;;;;;;;15.70;12.00;;;9.30;90.00;;;;;;5056961;28;20231;-77
2022/01/27 12:09:32;;;;;;;13.73;12.10;;;9.00;90.60;;;;;;5055317;28;20192;-77
2022/01/27 12:12:04;;;;;;;13.60;11.37;;;9.00;91.70;;;;;;5055485;28;20266;-77
2022/01/27 12:15:11;;;;;;;14.50;11.97;;;8.90;91.10;;;;;;5055761;28;20216;-77
2022/01/27 12:17:41;;;;;;;14.27;12.07;;;8.60;91.20;;;;;;5055502;28;20271;-77
2022/01/27 12:20:13;;;;;;;13.50;12.03;;;8.00;92.60;;;;;;5055308;28;20204;-77
2022/01/27 12:23:01;;;;;;;13.00;10.90;;;8.00;93.00;;;;;;5055188;28;20260;-77
2022/01/27 12:25:49;;;;;;;16.73;11.83;;;7.70;93.10;;;;;;5052576;28;20262;-77
2022/01/27 12:28:17;;;;;;;13.17;11.73;;;7.60;93.20;;;;;;5053870;28;20303;-75
2022/01/27 12:30:58;;;;;;;17.90;12.13;;;7.50;93.70;;;;;;5055187;28;20277;-76
2022/01/27 12:33:28;;;;;;;14.80;11.67;;;7.20;94.20;;;;;;5055260;28;20688;-77
2022/01/27 12:36:01;;;;;;;16.90;12.40;;;6.90;94.60;;;;;;5054912;28;20208;-77
2022/01/27 12:38:38;;;;;;;15.70;11.77;;;6.70;95.40;;;;;;5055845;28;20282;-77
2022/01/27 12:41:06;;;;;;;17.90;11.83;;;6.30;96.00;;;;;;5054870;28;20218;-76
2022/01/27 12:43:34;;;;;;;14.23;11.40;;;6.10;97.00;;;;;;5054860;28;20216;-76
2022/01/27 12:46:08;;;;;;;14.63;12.27;;;6.00;96.70;;;;;;5055334;28;20212;-76
2022/01/27 12:48:47;;;;;;;16.83;12.33;;;6.00;96.70;;;;;;5056913;28;20220;-79
2022/01/27 12:51:52;;;;;;;14.80;11.83;;;5.80;97.20;;;;;;5055558;28;20641;-76
2022/01/27 12:54:27;;;;;;;15.50;11.83;;;5.70;97.80;;;;;;5055386;28;20204;-77
2022/01/27 12:56:55;;;;;;;14.30;11.33;;;5.80;97.90;;;;;;5055489;28;20203;-77
2022/01/27 12:59:23;;;;;;;23.30;13.07;;;5.70;98.10;;;;;;5054215;28;20854;-78
2022/01/27 13:02:02;;;;;;;17.63;13.33;;;5.80;99.10;;;;;;5060714;28;20844;-77
2022/01/27 13:04:32;;;;;;;18.60;14.60;;;5.60;99.40;;;;;;5056350;28;20188;-77
2022/01/27 13:07:02;;;;;;;19.90;14.23;;;5.40;99.90;;;;;;5056696;28;20212;-78
2022/01/27 13:09:32;;;;;;;20.03;13.77;;;5.40;99.90;;;;;;5058288;28;20280;-77
2022/01/27 13:12:26;;;;;;;18.60;14.70;;;5.40;99.90;;;;;;5058806;28;20197;-77
2022/01/27 13:15:05;;;;;;;17.87;13.97;;;5.30;99.90;;;;;;5063134;28;20262;-78